Time,TemperatureF,DewpointF,PressureIn,WindDirection,WindDirectionDegrees,WindSpeedMPH,WindSpeedGustMPH,Humidity,HourlyPrecipIn,Conditions,Clouds,dailyrainin,SolarRadiationWatts/m^2,SoftwareType,DateUTC
2013-05-29 00:23:00,54.0,51.0,-100.00,NE,54,0.0,0.0,90,0.00,,,0.00,1.000000,,2013-05-29 04:23:00,
2013-05-29 00:33:00,54.0,51.0,-100.00,NE,54,0.0,0.0,90,0.00,,,0.00,1.000000,,2013-05-29 04:33:00,
2013-05-29 00:42:00,54.0,51.0,-100.00,NE,54,0.0,0.0,90,0.00,,,0.00,1.000000,,2013-05-29 04:42:00,
2013-05-29 00:52:00,54.0,51.0,-100.00,NE,54,0.0,0.0,90,0.00,,,0.00,1.000000,,2013-05-29 04:52:00,
2013-05-29 01:22:00,53.0,50.0,-100.00,West,260,1.0,2.0,91,0.00,,,0.00,1.000000,,2013-05-29 05:22:00,
2013-05-29 01:32:00,53.0,50.0,-100.00,West,260,1.0,2.0,91,0.00,,,0.00,1.000000,,2013-05-29 05:32:00,
2013-05-29 01:42:00,53.0,50.0,-100.00,West,260,1.0,2.0,91,0.00,,,0.00,1.000000,,2013-05-29 05:42:00,
2013-05-29 01:52:00,53.0,50.0,-100.00,West,260,1.0,2.0,91,0.00,,,0.00,1.000000,,2013-05-29 05:52:00,
2013-05-29 02:21:00,53.0,50.0,-100.00,SSW,197,2.0,4.0,91,0.00,,,0.00,1.000000,,2013-05-29 06:21:00,
2013-05-29 02:32:00,53.0,50.0,-100.00,SSW,197,2.0,4.0,91,0.00,,,0.00,1.000000,,2013-05-29 06:32:00,
2013-05-29 02:42:00,53.0,50.0,-100.00,SSW,197,2.0,4.0,91,0.00,,,0.00,1.000000,,2013-05-29 06:42:00,
2013-05-29 02:51:00,53.0,50.0,-100.00,SSW,197,2.0,4.0,91,0.00,,,0.00,1.000000,,2013-05-29 06:51:00,
2013-05-29 03:21:00,53.0,52.0,-100.00,SW,221,2.0,6.0,95,0.00,,,0.00,1.000000,,2013-05-29 07:21:00,
2013-05-29 03:34:00,53.0,52.0,-100.00,SW,221,2.0,6.0,95,0.00,,,0.00,1.000000,,2013-05-29 07:34:00,
2013-05-29 03:42:00,53.0,52.0,-100.00,SW,221,2.0,6.0,95,0.00,,,0.00,1.000000,,2013-05-29 07:42:00,
2013-05-29 03:52:00,53.0,52.0,-100.00,SW,221,2.0,6.0,95,0.00,,,0.00,1.000000,,2013-05-29 07:52:00,
2013-05-29 04:22:00,53.0,51.0,-100.00,South,170,1.0,4.0,92,0.00,,,0.00,1.000000,,2013-05-29 08:22:00,
2013-05-29 04:32:00,53.0,51.0,-100.00,South,170,1.0,4.0,92,0.00,,,0.00,1.000000,,2013-05-29 08:32:00,
2013-05-29 04:42:00,53.0,51.0,-100.00,South,170,1.0,4.0,92,0.00,,,0.00,1.000000,,2013-05-29 08:42:00,
2013-05-29 04:52:00,53.0,51.0,-100.00,South,170,1.0,4.0,92,0.00,,,0.00,1.000000,,2013-05-29 08:52:00,
2013-05-29 05:21:00,53.0,51.0,-100.00,South,177,1.0,3.0,93,0.00,,,0.00,1.000000,,2013-05-29 09:21:00,
2013-05-29 05:33:00,53.0,51.0,-100.00,South,177,1.0,3.0,93,0.00,,,0.00,1.000000,,2013-05-29 09:33:00,
2013-05-29 05:42:00,53.0,51.0,-100.00,South,177,1.0,3.0,93,0.00,,,0.00,1.000000,,2013-05-29 09:42:00,
2013-05-29 05:52:00,53.0,51.0,-100.00,South,177,1.0,3.0,93,0.00,,,0.00,1.000000,,2013-05-29 09:52:00,
2013-05-29 06:22:00,51.0,49.0,-100.00,ESE,120,0.0,5.0,94,0.00,,,0.00,1.000000,,2013-05-29 10:22:00,
2013-05-29 06:32:00,51.0,49.0,-100.00,ESE,120,0.0,5.0,94,0.00,,,0.00,1.000000,,2013-05-29 10:32:00,
2013-05-29 06:42:00,51.0,49.0,-100.00,ESE,120,0.0,5.0,94,0.00,,,0.00,1.000000,,2013-05-29 10:42:00,
2013-05-29 06:52:00,51.0,49.0,-100.00,ESE,120,0.0,5.0,94,0.00,,,0.00,1.000000,,2013-05-29 10:52:00,
2013-05-29 07:22:00,52.0,51.0,-100.00,SW,219,3.0,5.0,97,0.00,,,0.00,9.000000,,2013-05-29 11:22:00,
2013-05-29 07:32:00,52.0,51.0,-100.00,SW,219,3.0,5.0,97,0.00,,,0.00,9.000000,,2013-05-29 11:32:00,
2013-05-29 07:42:00,52.0,51.0,-100.00,SW,219,3.0,5.0,97,0.00,,,0.00,9.000000,,2013-05-29 11:42:00,
2013-05-29 07:52:00,52.0,51.0,-100.00,SW,219,3.0,5.0,97,0.00,,,0.00,9.000000,,2013-05-29 11:52:00,
2013-05-29 08:22:00,56.0,54.0,-100.00,SSW,212,3.0,5.0,94,0.00,,,0.00,54.000000,,2013-05-29 12:22:00,
2013-05-29 08:32:00,56.0,54.0,-100.00,SSW,212,3.0,5.0,94,0.00,,,0.00,54.000000,,2013-05-29 12:32:00,
2013-05-29 08:42:00,56.0,54.0,-100.00,SSW,212,3.0,5.0,94,0.00,,,0.00,54.000000,,2013-05-29 12:42:00,
2013-05-29 08:52:00,56.0,54.0,-100.00,SSW,212,3.0,5.0,94,0.00,,,0.00,54.000000,,2013-05-29 12:52:00,
2013-05-29 09:21:00,56.0,53.0,-100.00,SSW,202,2.0,6.0,91,0.00,,,0.00,68.000000,,2013-05-29 13:21:00,
2013-05-29 09:32:00,56.0,53.0,-100.00,SSW,202,2.0,6.0,91,0.00,,,0.00,68.000000,,2013-05-29 13:32:00,
2013-05-29 09:42:00,56.0,53.0,-100.00,SSW,202,2.0,6.0,91,0.00,,,0.00,68.000000,,2013-05-29 13:42:00,
2013-05-29 09:52:00,56.0,53.0,-100.00,SSW,202,2.0,6.0,91,0.00,,,0.00,68.000000,,2013-05-29 13:52:00,
2013-05-29 10:21:00,58.0,54.0,-100.00,SSW,206,3.0,5.0,87,0.00,,,0.00,99.000000,,2013-05-29 14:21:00,
2013-05-29 10:32:00,58.0,54.0,-100.00,SSW,206,3.0,5.0,87,0.00,,,0.00,99.000000,,2013-05-29 14:32:00,
2013-05-29 10:42:00,58.0,54.0,-100.00,SSW,206,3.0,5.0,87,0.00,,,0.00,99.000000,,2013-05-29 14:42:00,
2013-05-29 10:52:00,58.0,54.0,-100.00,SSW,206,3.0,5.0,87,0.00,,,0.00,99.000000,,2013-05-29 14:52:00,
2013-05-29 11:21:00,60.0,54.0,-100.00,South,182,3.0,6.0,80,0.00,,,0.00,177.000000,,2013-05-29 15:21:00,
2013-05-29 11:33:00,60.0,54.0,-100.00,South,182,3.0,6.0,80,0.00,,,0.00,177.000000,,2013-05-29 15:33:00,
2013-05-29 11:42:00,60.0,54.0,-100.00,South,182,3.0,6.0,80,0.00,,,0.00,177.000000,,2013-05-29 15:42:00,
2013-05-29 11:53:00,60.0,54.0,-100.00,South,182,3.0,6.0,80,0.00,,,0.00,177.000000,,2013-05-29 15:53:00,
2013-05-29 12:22:00,62.0,55.0,-100.00,SW,217,4.0,8.0,77,0.00,,,0.00,186.000000,,2013-05-29 16:22:00,
2013-05-29 12:32:00,62.0,55.0,-100.00,SW,217,4.0,8.0,77,0.00,,,0.00,186.000000,,2013-05-29 16:32:00,
2013-05-29 12:42:00,62.0,55.0,-100.00,SW,217,4.0,8.0,77,0.00,,,0.00,186.000000,,2013-05-29 16:42:00,
2013-05-29 12:52:00,62.0,55.0,-100.00,SW,217,4.0,8.0,77,0.00,,,0.00,186.000000,,2013-05-29 16:52:00,
2013-05-29 13:22:00,64.0,55.0,-100.00,SSW,204,6.0,12.0,72,0.00,,,0.00,236.000000,,2013-05-29 17:22:00,
2013-05-29 13:32:00,64.0,55.0,-100.00,SSW,204,6.0,12.0,72,0.00,,,0.00,236.000000,,2013-05-29 17:32:00,
2013-05-29 13:42:00,64.0,55.0,-100.00,SSW,204,6.0,12.0,72,0.00,,,0.00,236.000000,,2013-05-29 17:42:00,
2013-05-29 13:52:00,64.0,55.0,-100.00,SSW,204,6.0,12.0,72,0.00,,,0.00,236.000000,,2013-05-29 17:52:00,
2013-05-29 14:22:00,68.0,55.0,-100.00,South,177,6.0,12.0,63,0.00,,,0.00,528.000000,,2013-05-29 18:22:00,
2013-05-29 14:32:00,68.0,55.0,-100.00,South,177,6.0,12.0,63,0.00,,,0.00,528.000000,,2013-05-29 18:32:00,
2013-05-29 14:42:00,68.0,55.0,-100.00,South,177,6.0,12.0,63,0.00,,,0.00,528.000000,,2013-05-29 18:42:00,
2013-05-29 14:51:00,68.0,55.0,-100.00,South,177,6.0,12.0,63,0.00,,,0.00,528.000000,,2013-05-29 18:51:00,
2013-05-29 15:21:00,73.0,55.0,-100.00,WSW,254,6.0,13.0,54,0.00,,,0.00,798.000000,,2013-05-29 19:21:00,
2013-05-29 15:32:00,73.0,55.0,-100.00,WSW,254,6.0,13.0,54,0.00,,,0.00,798.000000,,2013-05-29 19:32:00,
2013-05-29 15:44:00,73.0,55.0,-100.00,WSW,254,6.0,13.0,54,0.00,,,0.00,798.000000,,2013-05-29 19:44:00,
2013-05-29 15:52:00,73.0,55.0,-100.00,WSW,254,6.0,13.0,54,0.00,,,0.00,798.000000,,2013-05-29 19:52:00,
2013-05-29 16:22:00,77.0,55.0,-100.00,West,272,5.0,11.0,46,0.00,,,0.00,854.000000,,2013-05-29 20:22:00,
2013-05-29 16:33:00,77.0,55.0,-100.00,West,272,5.0,11.0,46,0.00,,,0.00,854.000000,,2013-05-29 20:33:00,
2013-05-29 16:42:00,77.0,55.0,-100.00,West,272,5.0,11.0,46,0.00,,,0.00,854.000000,,2013-05-29 20:42:00,
2013-05-29 16:52:00,77.0,55.0,-100.00,West,272,5.0,11.0,46,0.00,,,0.00,854.000000,,2013-05-29 20:52:00,
2013-05-29 17:22:00,80.0,54.0,-100.00,SSE,168,5.0,9.0,41,0.00,,,0.00,784.000000,,2013-05-29 21:22:00,
2013-05-29 17:33:00,80.0,54.0,-100.00,SSE,168,5.0,9.0,41,0.00,,,0.00,784.000000,,2013-05-29 21:33:00,
2013-05-29 17:43:00,80.0,54.0,-100.00,SSE,168,5.0,9.0,41,0.00,,,0.00,784.000000,,2013-05-29 21:43:00,
2013-05-29 17:53:00,80.0,54.0,-100.00,SSE,168,5.0,9.0,41,0.00,,,0.00,784.000000,,2013-05-29 21:53:00,
2013-05-29 18:23:00,81.0,51.0,-100.00,WSW,244,4.0,10.0,35,0.00,,,0.00,649.000000,,2013-05-29 22:23:00,
2013-05-29 18:33:00,81.0,51.0,-100.00,WSW,244,4.0,10.0,35,0.00,,,0.00,649.000000,,2013-05-29 22:33:00,
2013-05-29 18:42:00,81.0,51.0,-100.00,WSW,244,4.0,10.0,35,0.00,,,0.00,649.000000,,2013-05-29 22:42:00,
2013-05-29 18:53:00,81.0,51.0,-100.00,WSW,244,4.0,10.0,35,0.00,,,0.00,649.000000,,2013-05-29 22:53:00,
2013-05-29 19:22:00,81.0,50.0,-100.00,South,185,3.0,10.0,34,0.00,,,0.00,392.000000,,2013-05-29 23:22:00,
2013-05-29 19:33:00,81.0,50.0,-100.00,South,185,3.0,10.0,34,0.00,,,0.00,392.000000,,2013-05-29 23:33:00,
2013-05-29 19:42:00,81.0,50.0,-100.00,South,185,3.0,10.0,34,0.00,,,0.00,392.000000,,2013-05-29 23:42:00,
2013-05-29 19:52:00,81.0,50.0,-100.00,South,185,3.0,10.0,34,0.00,,,0.00,392.000000,,2013-05-29 23:52:00,
2013-05-29 20:21:00,79.0,48.0,-100.00,South,180,5.0,10.0,34,0.00,,,0.00,264.000000,,2013-05-30 00:21:00,
2013-05-29 20:32:00,79.0,48.0,-100.00,South,180,5.0,10.0,34,0.00,,,0.00,264.000000,,2013-05-30 00:32:00,
2013-05-29 20:42:00,79.0,48.0,-100.00,South,180,5.0,10.0,34,0.00,,,0.00,264.000000,,2013-05-30 00:42:00,
2013-05-29 20:52:00,79.0,48.0,-100.00,South,180,5.0,10.0,34,0.00,,,0.00,264.000000,,2013-05-30 00:52:00,
2013-05-29 21:21:00,71.0,51.0,-100.00,SSW,197,0.0,7.0,50,0.00,,,0.00,60.000000,,2013-05-30 01:21:00,
2013-05-29 21:32:00,71.0,51.0,-100.00,SSW,197,0.0,7.0,50,0.00,,,0.00,60.000000,,2013-05-30 01:32:00,
2013-05-29 21:42:00,71.0,51.0,-100.00,SSW,197,0.0,7.0,50,0.00,,,0.00,60.000000,,2013-05-30 01:42:00,
2013-05-29 21:52:00,71.0,51.0,-100.00,SSW,197,0.0,7.0,50,0.00,,,0.00,60.000000,,2013-05-30 01:52:00,
2013-05-29 22:21:00,67.0,57.0,-100.00,SSE,166,3.0,8.0,70,0.00,,,0.00,8.000000,,2013-05-30 02:21:00,
2013-05-29 22:32:00,67.0,57.0,-100.00,SSE,166,3.0,8.0,70,0.00,,,0.00,8.000000,,2013-05-30 02:32:00,
2013-05-29 22:42:00,67.0,57.0,-100.00,SSE,166,3.0,8.0,70,0.00,,,0.00,8.000000,,2013-05-30 02:42:00,
2013-05-29 22:52:00,67.0,57.0,-100.00,SSE,166,3.0,8.0,70,0.00,,,0.00,8.000000,,2013-05-30 02:52:00,
2013-05-29 23:21:00,71.0,60.0,-100.00,SSE,167,5.0,9.0,68,0.00,,,0.00,1.000000,,2013-05-30 03:21:00,
2013-05-29 23:33:00,71.0,60.0,-100.00,SSE,167,5.0,9.0,68,0.00,,,0.00,1.000000,,2013-05-30 03:33:00,
2013-05-29 23:43:00,71.0,60.0,-100.00,SSE,167,5.0,9.0,68,0.00,,,0.00,1.000000,,2013-05-30 03:43:00,
2013-05-29 23:53:00,71.0,60.0,-100.00,SSE,167,5.0,9.0,68,0.00,,,0.00,1.000000,,2013-05-30 03:53:00,